createdAt,value
2017-02-02T00:00:19.953Z,4.43
2017-02-02T00:01:25.204Z,4.43
2017-02-02T00:02:31.324Z,4.46
2017-02-02T00:03:36.511Z,4.43
2017-02-02T00:04:40.721Z,4.4
2017-02-02T00:05:46.969Z,4.44
2017-02-02T00:06:53.153Z,4.44
2017-02-02T00:07:58.482Z,4.44
2017-02-02T00:09:04.622Z,4.47
2017-02-02T00:10:08.800Z,4.42
2017-02-02T00:11:13.999Z,4.5
2017-02-02T00:12:19.175Z,4.44
2017-02-02T00:13:24.379Z,4.54
2017-02-02T00:14:29.576Z,4.42
2017-02-02T00:15:35.876Z,4.55
2017-02-02T00:16:41.055Z,4.54
2017-02-02T00:17:47.201Z,4.58
2017-02-02T00:18:53.365Z,4.54
2017-02-02T00:19:58.563Z,4.46
2017-02-02T00:21:04.732Z,4.52
2017-02-02T00:22:09.904Z,4.54
2017-02-02T00:23:15.091Z,4.59
2017-02-02T00:24:21.251Z,4.5
2017-02-02T00:25:26.427Z,4.54
2017-02-02T00:26:31.706Z,4.55
2017-02-02T00:28:40.155Z,4.59
2017-02-02T00:29:46.322Z,4.57
2017-02-02T00:30:52.482Z,4.7
2017-02-02T00:31:58.660Z,4.67
2017-02-02T00:33:01.923Z,4.64
2017-02-02T00:34:08.085Z,4.75
2017-02-02T00:35:13.509Z,4.64
2017-02-02T00:36:19.677Z,4.69
2017-02-02T00:37:24.882Z,4.7
2017-02-02T00:38:30.060Z,4.67
2017-02-02T00:39:35.257Z,4.72
2017-02-02T00:40:39.487Z,4.75
2017-02-02T00:41:45.639Z,4.61
2017-02-02T00:42:50.834Z,4.65
2017-02-02T00:43:55.043Z,4.76
2017-02-02T00:44:59.275Z,4.75
2017-02-02T00:46:03.480Z,4.69
2017-02-02T00:47:08.719Z,4.75
2017-02-02T00:48:12.919Z,4.77
2017-02-02T00:49:17.192Z,4.67
2017-02-02T00:50:22.470Z,4.75
2017-02-02T00:51:27.635Z,4.67
2017-02-02T00:52:31.855Z,4.77
2017-02-02T00:53:38.027Z,4.72
2017-02-02T00:54:43.234Z,4.62
2017-02-02T00:55:48.438Z,4.73
2017-02-02T00:56:53.648Z,4.69
2017-02-02T00:57:56.884Z,4.64
2017-02-02T00:59:01.166Z,4.64
2017-02-02T01:00:04.466Z,4.61
2017-02-02T01:01:09.609Z,4.64
2017-02-02T01:02:14.783Z,4.62
2017-02-02T01:03:20.950Z,4.65
2017-02-02T01:04:25.151Z,4.62
2017-02-02T01:05:31.316Z,4.73
2017-02-02T01:06:36.615Z,4.69
2017-02-02T01:07:41.800Z,4.64
2017-02-02T01:08:46.998Z,4.64
2017-02-02T01:09:52.176Z,4.67
2017-02-02T01:10:55.408Z,4.62
2017-02-02T01:12:01.571Z,4.62
2017-02-02T01:13:07.774Z,4.65
2017-02-02T01:14:13.919Z,4.59
2017-02-02T01:15:18.128Z,4.77
2017-02-02T01:16:23.474Z,4.77
2017-02-02T01:17:28.662Z,4.64
2017-02-02T01:18:34.859Z,4.61
2017-02-02T01:19:40.991Z,4.7
2017-02-02T01:20:46.191Z,4.62
2017-02-02T01:21:52.372Z,4.69
2017-02-02T01:22:58.535Z,4.61
2017-02-02T01:24:02.755Z,4.65
2017-02-02T01:25:07.922Z,4.64
2017-02-02T01:26:13.189Z,4.67
2017-02-02T01:27:17.559Z,4.69
2017-02-02T01:28:22.763Z,4.67
2017-02-02T01:29:26.985Z,4.65
2017-02-02T01:30:33.150Z,4.62
2017-02-02T01:31:38.415Z,4.58
2017-02-02T01:32:42.624Z,4.7
2017-02-02T01:33:47.830Z,4.65
2017-02-02T01:34:53.018Z,4.62
2017-02-02T01:35:57.247Z,4.65
2017-02-02T01:37:03.415Z,4.67
2017-02-02T01:38:08.614Z,4.64
2017-02-02T01:39:14.778Z,4.67
2017-02-02T01:40:19.126Z,4.7
2017-02-02T01:41:24.321Z,4.76
2017-02-02T01:42:30.491Z,4.61
2017-02-02T01:43:36.660Z,4.65
2017-02-02T01:44:40.890Z,4.69
2017-02-02T01:45:46.054Z,4.65
2017-02-02T01:46:52.216Z,4.72
2017-02-02T01:47:57.415Z,4.69
2017-02-02T01:49:02.797Z,4.73
2017-02-02T01:50:07.998Z,4.72
2017-02-02T01:51:14.195Z,4.69
2017-02-02T01:52:19.395Z,4.62
2017-02-02T01:53:24.589Z,4.65
2017-02-02T01:54:29.794Z,4.61
2017-02-02T01:55:34.968Z,4.67
2017-02-02T01:56:41.133Z,4.69
2017-02-02T01:57:47.299Z,4.67
2017-02-02T01:58:53.465Z,4.57
2017-02-02T01:59:58.661Z,4.61
2017-02-02T02:01:03.861Z,4.67
2017-02-02T02:02:09.056Z,4.58
2017-02-02T02:03:12.335Z,4.69
2017-02-02T02:04:17.547Z,4.67
2017-02-02T02:05:22.767Z,4.67
2017-02-02T02:06:27.002Z,4.62
2017-02-02T02:07:31.289Z,4.62
2017-02-02T02:08:37.423Z,4.62
2017-02-02T02:09:43.581Z,4.75
2017-02-02T02:10:47.826Z,4.75
2017-02-02T02:11:53.006Z,4.73
2017-02-02T02:12:59.180Z,4.73
2017-02-02T02:14:05.440Z,4.79
2017-02-02T02:15:09.634Z,4.7
2017-02-02T02:16:15.802Z,4.73
2017-02-02T02:17:20.036Z,4.7
2017-02-02T02:18:25.239Z,4.76
2017-02-02T02:19:30.431Z,4.77
2017-02-02T02:20:36.602Z,4.84
2017-02-02T02:21:41.772Z,4.84
2017-02-02T02:22:46.003Z,4.83
2017-02-02T02:23:52.173Z,4.86
2017-02-02T02:24:58.360Z,4.89
2017-02-02T02:26:04.522Z,4.89
2017-02-02T02:27:08.758Z,4.96
2017-02-02T02:28:14.924Z,4.92
2017-02-02T02:29:20.116Z,4.95
2017-02-02T02:30:25.277Z,4.91
2017-02-02T02:31:30.452Z,4.96
2017-02-02T02:32:35.650Z,4.95
2017-02-02T02:33:40.813Z,4.89
2017-02-02T02:34:46.975Z,4.92
2017-02-02T02:35:53.139Z,4.98
2017-02-02T02:36:58.336Z,4.92
2017-02-02T02:38:01.574Z,4.96
2017-02-02T02:39:05.762Z,4.92
2017-02-02T02:40:11.944Z,4.91
2017-02-02T02:41:18.117Z,4.95
2017-02-02T02:42:23.325Z,4.96
2017-02-02T02:43:28.521Z,4.94
2017-02-02T02:44:32.801Z,4.96
2017-02-02T02:45:37.934Z,4.95
2017-02-02T02:46:43.135Z,4.95
2017-02-02T02:47:48.303Z,4.98
2017-02-02T02:48:53.484Z,4.98
2017-02-02T02:49:59.738Z,4.95
2017-02-02T02:51:03.909Z,4.98
2017-02-02T02:52:09.426Z,5.02
2017-02-02T02:53:14.703Z,4.98
2017-02-02T02:54:20.858Z,4.94
2017-02-02T02:55:26.054Z,5.02
2017-02-02T02:57:38.410Z,5.01
2017-02-02T02:58:43.612Z,5.01
2017-02-02T02:59:49.785Z,4.92
2017-02-02T03:00:56.021Z,5.02
2017-02-02T03:01:59.333Z,5.01
2017-02-02T03:03:04.490Z,5.07
2017-02-02T03:04:09.694Z,4.98
2017-02-02T03:05:13.948Z,5.04
2017-02-02T03:06:18.148Z,5.01
2017-02-02T03:07:23.347Z,5.02
2017-02-02T03:08:29.505Z,5.09
2017-02-02T03:09:32.763Z,5.04
2017-02-02T03:10:37.965Z,5.09
2017-02-02T03:11:43.185Z,5.09
2017-02-02T03:12:48.389Z,5.1
2017-02-02T03:13:53.582Z,5.13
2017-02-02T03:14:58.781Z,5.13
2017-02-02T03:16:04.942Z,5.14
2017-02-02T03:17:11.184Z,5.13
2017-02-02T03:18:15.415Z,5.19
2017-02-02T03:19:21.581Z,5.17
2017-02-02T03:20:26.790Z,5.13
2017-02-02T03:21:31.976Z,5.12
2017-02-02T03:22:38.144Z,5.16
2017-02-02T03:23:43.350Z,5.17
2017-02-02T03:24:49.510Z,5.16
2017-02-02T03:25:54.785Z,5.12
2017-02-02T03:26:59.984Z,5.14
2017-02-02T03:28:05.174Z,5.14
2017-02-02T03:29:11.343Z,5.14
2017-02-02T03:30:15.548Z,5.12
2017-02-02T03:31:20.746Z,5.12
2017-02-02T03:32:25.987Z,5.2
2017-02-02T03:33:32.126Z,5.16
2017-02-02T03:34:37.363Z,5.16
2017-02-02T03:35:43.492Z,5.19
2017-02-02T03:36:49.674Z,5.25
2017-02-02T03:37:55.834Z,5.22
2017-02-02T03:39:02.000Z,5.13
2017-02-02T03:40:08.177Z,5.12
2017-02-02T03:41:12.410Z,5.3
2017-02-02T03:42:17.618Z,5.14
2017-02-02T03:43:22.822Z,5.19
2017-02-02T03:44:28.025Z,5.23
2017-02-02T03:45:34.187Z,5.14
2017-02-02T03:46:39.426Z,5.2
2017-02-02T03:47:45.595Z,5.22
2017-02-02T03:48:51.761Z,5.3
2017-02-02T03:49:56.953Z,5.25
2017-02-02T03:51:02.151Z,5.22
2017-02-02T03:52:08.324Z,5.34
2017-02-02T03:53:11.589Z,5.23
2017-02-02T03:54:16.857Z,5.25
2017-02-02T03:55:23.027Z,5.27
2017-02-02T03:56:28.239Z,5.17
2017-02-02T03:57:34.404Z,5.22
2017-02-02T03:58:39.600Z,5.23
2017-02-02T03:59:42.871Z,5.22
2017-02-02T04:00:48.082Z,5.16
2017-02-02T04:01:53.268Z,5.1
2017-02-02T04:02:59.431Z,5.14
2017-02-02T04:04:04.635Z,5.1
2017-02-02T04:05:09.819Z,5.01
2017-02-02T04:06:16.120Z,5.01
2017-02-02T04:07:21.318Z,4.98
2017-02-02T04:08:26.532Z,4.92
2017-02-02T04:09:31.755Z,4.86
2017-02-02T04:10:37.895Z,4.89
2017-02-02T04:11:44.056Z,4.79
2017-02-02T04:12:50.229Z,4.84
2017-02-02T04:13:55.427Z,4.83
2017-02-02T04:15:00.623Z,4.77
2017-02-02T04:16:04.862Z,4.76
2017-02-02T04:17:11.002Z,4.89
2017-02-02T04:18:17.155Z,4.86
2017-02-02T04:19:21.381Z,4.98
2017-02-02T04:20:26.575Z,4.99
2017-02-02T04:21:31.966Z,5.01
2017-02-02T04:22:37.162Z,5.09
2017-02-02T04:23:40.394Z,5.13
2017-02-02T04:24:46.556Z,5.12
2017-02-02T04:25:52.726Z,5.16
2017-02-02T04:26:58.893Z,5.19
2017-02-02T04:28:04.063Z,5.12
2017-02-02T04:29:10.238Z,5.16
2017-02-02T04:30:16.402Z,5.19
2017-02-02T04:31:21.609Z,5.22
2017-02-02T04:32:27.771Z,5.22
2017-02-02T04:33:33.982Z,5.23
2017-02-02T04:34:40.112Z,5.28
2017-02-02T04:35:45.375Z,5.23
2017-02-02T04:36:49.619Z,5.28
2017-02-02T04:37:53.859Z,5.27
2017-02-02T04:39:00.025Z,5.3
2017-02-02T04:40:05.218Z,5.32
2017-02-02T04:41:10.405Z,5.4
2017-02-02T04:42:15.634Z,5.34
2017-02-02T04:43:17.899Z,5.32
2017-02-02T04:44:24.059Z,5.45
2017-02-02T04:45:30.259Z,5.45
2017-02-02T04:46:35.467Z,5.38
2017-02-02T04:47:41.628Z,5.43
2017-02-02T04:48:46.819Z,5.45
2017-02-02T04:49:52.026Z,5.46
2017-02-02T04:50:58.159Z,5.49
2017-02-02T04:52:02.367Z,5.5
2017-02-02T04:53:08.524Z,5.57
2017-02-02T04:54:14.692Z,5.4
2017-02-02T04:55:21.049Z,5.43
2017-02-02T04:56:25.284Z,5.41
2017-02-02T04:57:30.474Z,5.4
2017-02-02T04:58:36.637Z,5.46
2017-02-02T04:59:41.855Z,5.45
2017-02-02T05:00:48.028Z,5.53
2017-02-02T05:01:52.245Z,5.41
2017-02-02T05:02:57.457Z,5.46
2017-02-02T05:04:02.758Z,5.49
2017-02-02T05:05:07.178Z,5.45
2017-02-02T05:06:12.386Z,5.4
2017-02-02T05:07:18.611Z,5.48
2017-02-02T05:08:23.230Z,5.48
2017-02-02T05:09:28.430Z,5.43
2017-02-02T05:10:33.631Z,5.49
2017-02-02T05:11:39.798Z,5.46
2017-02-02T05:12:45.002Z,5.48
2017-02-02T05:13:51.175Z,5.48
2017-02-02T05:14:57.396Z,5.45
2017-02-02T05:16:03.561Z,5.37
2017-02-02T05:17:08.724Z,5.4
2017-02-02T05:18:13.928Z,5.43
2017-02-02T05:19:19.124Z,5.4
2017-02-02T05:20:23.354Z,5.34
2017-02-02T05:21:29.563Z,5.32
2017-02-02T05:22:32.796Z,5.32
2017-02-02T05:23:37.029Z,5.34
2017-02-02T05:24:41.261Z,5.32
2017-02-02T05:25:47.421Z,5.31
2017-02-02T05:26:53.591Z,5.31
2017-02-02T05:27:59.766Z,5.22
2017-02-02T05:29:04.972Z,5.23
2017-02-02T05:30:11.148Z,5.25
2017-02-02T05:31:16.355Z,5.2
2017-02-02T05:32:21.566Z,5.2
2017-02-02T05:33:26.765Z,5.17
2017-02-02T05:34:30.022Z,5.12
2017-02-02T05:35:35.227Z,5.14
2017-02-02T05:36:40.399Z,5.12
2017-02-02T05:37:45.600Z,5.19
2017-02-02T05:38:51.770Z,5.12
2017-02-02T05:39:56.981Z,5.17
2017-02-02T05:41:03.163Z,5.05
2017-02-02T05:42:09.325Z,5.01
2017-02-02T05:43:14.514Z,4.96
2017-02-02T05:44:20.684Z,4.91
2017-02-02T05:45:25.885Z,4.98
2017-02-02T05:46:32.103Z,4.98
2017-02-02T05:47:37.382Z,4.89
2017-02-02T05:48:43.551Z,4.79
2017-02-02T05:49:48.753Z,4.84
2017-02-02T05:50:53.920Z,4.8
2017-02-02T05:51:58.126Z,4.84
2017-02-02T05:53:04.297Z,4.88
2017-02-02T05:54:10.471Z,4.76
2017-02-02T05:55:14.664Z,4.77
2017-02-02T05:56:20.835Z,4.7
2017-02-02T05:57:26.038Z,4.76
2017-02-02T05:58:31.302Z,4.61
2017-02-02T05:59:37.432Z,4.7
2017-02-02T06:00:42.850Z,4.64
2017-02-02T06:01:47.170Z,4.65
2017-02-02T06:02:53.463Z,4.58
2017-02-02T06:03:58.818Z,4.58
2017-02-02T06:05:04.023Z,4.62
2017-02-02T06:06:10.198Z,4.64
2017-02-02T06:07:16.469Z,4.54
2017-02-02T06:08:22.637Z,4.64
2017-02-02T06:09:26.893Z,4.57
2017-02-02T06:10:31.124Z,4.62
2017-02-02T06:11:37.374Z,4.5
2017-02-02T06:12:43.489Z,4.52
2017-02-02T06:13:48.675Z,4.52
2017-02-02T06:14:54.832Z,4.39
2017-02-02T06:16:01.090Z,4.51
2017-02-02T06:17:07.260Z,4.42
2017-02-02T06:18:12.517Z,4.47
2017-02-02T06:19:18.686Z,4.46
2017-02-02T06:20:23.888Z,4.39
2017-02-02T06:21:28.105Z,4.33
2017-02-02T06:22:34.274Z,4.29
2017-02-02T06:23:39.465Z,4.34
2017-02-02T06:24:45.633Z,4.26
2017-02-02T06:25:50.830Z,4.16
2017-02-02T06:26:56.013Z,4.22
2017-02-02T06:28:02.183Z,4.21
2017-02-02T06:29:06.391Z,4.19
2017-02-02T06:30:11.595Z,4.15
2017-02-02T06:31:17.753Z,4.22
2017-02-02T06:32:21.958Z,4.15
2017-02-02T06:33:28.138Z,4.16
2017-02-02T06:34:34.309Z,4.15
2017-02-02T06:35:39.493Z,4.14
2017-02-02T06:36:45.666Z,4.18
2017-02-02T06:37:49.901Z,4.19
2017-02-02T06:38:56.067Z,4.16
2017-02-02T06:40:01.394Z,4.19
2017-02-02T06:41:05.625Z,4.22
2017-02-02T06:42:10.838Z,4.19
2017-02-02T06:43:15.107Z,4.21
2017-02-02T06:44:18.382Z,4.18
2017-02-02T06:45:24.543Z,4.21
2017-02-02T06:46:30.717Z,4.22
2017-02-02T06:47:35.922Z,4.24
2017-02-02T06:48:40.401Z,4.21
2017-02-02T06:49:46.537Z,4.24
2017-02-02T06:50:51.766Z,4.24
2017-02-02T06:51:57.942Z,4.22
2017-02-02T06:53:03.251Z,4.22
2017-02-02T06:54:06.455Z,4.19
2017-02-02T06:55:12.618Z,4.25
2017-02-02T06:56:18.799Z,4.25
2017-02-02T06:57:23.998Z,4.26
2017-02-02T06:58:29.194Z,4.28
2017-02-02T06:59:35.491Z,4.34
2017-02-02T07:00:40.752Z,4.26
2017-02-02T07:01:45.965Z,4.32
2017-02-02T07:02:50.176Z,4.28
2017-02-02T07:03:55.377Z,4.24
2017-02-02T07:05:00.577Z,4.16
2017-02-02T07:06:03.810Z,4.25
2017-02-02T07:07:08.038Z,4.18
2017-02-02T07:08:14.235Z,4.25
2017-02-02T07:09:20.399Z,4.36
2017-02-02T07:10:25.592Z,4.43
2017-02-02T07:11:30.792Z,4.4
2017-02-02T07:12:37.005Z,4.51
2017-02-02T07:13:42.137Z,4.42
2017-02-02T07:14:47.340Z,4.54
2017-02-02T07:15:52.530Z,4.52
2017-02-02T07:16:58.710Z,4.58
2017-02-02T07:18:04.875Z,4.55
2017-02-02T07:19:08.347Z,4.61
2017-02-02T07:20:13.575Z,4.61
2017-02-02T07:21:18.778Z,4.58
2017-02-02T07:22:24.940Z,4.64
2017-02-02T07:23:29.178Z,4.65
2017-02-02T07:24:33.408Z,4.7
2017-02-02T07:25:39.575Z,4.64
2017-02-02T07:26:44.874Z,4.75
2017-02-02T07:27:51.053Z,4.7
2017-02-02T07:28:56.265Z,4.79
2017-02-02T07:29:59.533Z,4.76
2017-02-02T07:31:05.695Z,4.72
2017-02-02T07:32:09.957Z,4.73
2017-02-02T07:33:15.100Z,4.77
2017-02-02T07:34:21.406Z,4.77
2017-02-02T07:35:26.503Z,4.88
2017-02-02T07:36:32.680Z,4.86
2017-02-02T07:37:38.838Z,4.88
2017-02-02T07:38:45.036Z,4.92
2017-02-02T07:39:51.209Z,4.92
2017-02-02T07:40:57.486Z,4.96
2017-02-02T07:42:03.613Z,4.99
2017-02-02T07:43:09.786Z,5.04
2017-02-02T07:44:15.954Z,5.13
2017-02-02T07:45:20.156Z,5.19
2017-02-02T07:46:26.324Z,5.25
2017-02-02T07:47:31.633Z,5.34
2017-02-02T07:48:36.840Z,5.63
2017-02-02T07:49:43.002Z,5.93
2017-02-02T07:50:49.185Z,6.22
2017-02-02T07:51:54.355Z,6.47
2017-02-02T07:52:58.593Z,6.69
2017-02-02T07:54:03.766Z,6.81
2017-02-02T07:55:08.002Z,7.07
2017-02-02T07:56:14.174Z,7.23
2017-02-02T07:57:19.370Z,7.23
2017-02-02T07:58:24.575Z,7.34
2017-02-02T07:59:30.775Z,7.27
2017-02-02T08:00:36.981Z,7.24
2017-02-02T08:01:41.220Z,7.2
2017-02-02T08:02:47.384Z,7.22
2017-02-02T08:03:53.544Z,7.29
2017-02-02T08:04:57.746Z,7.47
2017-02-02T08:06:01.994Z,7.71
2017-02-02T08:07:07.167Z,7.79
2017-02-02T08:08:11.409Z,7.93
2017-02-02T08:09:15.681Z,8
2017-02-02T08:10:19.927Z,7.92
2017-02-02T08:11:25.170Z,7.87
2017-02-02T08:12:29.405Z,7.79
2017-02-02T08:13:33.654Z,7.53
2017-02-02T08:14:39.860Z,7.55
2017-02-02T08:15:45.034Z,7.45
2017-02-02T08:16:50.233Z,7.35
2017-02-02T08:17:55.436Z,7.26
2017-02-02T08:19:01.615Z,7.29
2017-02-02T08:20:05.818Z,7.2
2017-02-02T08:21:09.078Z,7.23
2017-02-02T08:23:34.446Z,7.22
2017-02-02T08:24:39.612Z,7.31
2017-02-02T08:25:43.882Z,7.55
2017-02-02T08:26:47.154Z,7.66
2017-02-02T08:27:50.397Z,7.97
2017-02-02T08:28:55.658Z,8.15
2017-02-02T08:30:00.820Z,8.39
2017-02-02T08:31:05.039Z,8.48
2017-02-02T08:32:09.259Z,8.58
2017-02-02T08:33:15.433Z,8.6
2017-02-02T08:34:20.660Z,8.75
2017-02-02T08:35:26.843Z,9.05
2017-02-02T08:36:31.292Z,9.32
2017-02-02T08:37:37.543Z,9.57
2017-02-02T08:38:42.656Z,9.5
2017-02-02T08:39:48.830Z,9.45
2017-02-02T08:40:55.003Z,9.35
2017-02-02T08:41:59.240Z,9.18
2017-02-02T08:43:03.449Z,9.04
2017-02-02T08:44:07.681Z,8.91
2017-02-02T08:45:11.916Z,8.68
2017-02-02T08:46:17.139Z,8.53
2017-02-02T08:47:22.398Z,8.25
2017-02-02T08:48:28.534Z,8.22
2017-02-02T08:49:34.714Z,8.21
2017-02-02T08:50:40.893Z,8.14
2017-02-02T08:51:45.111Z,8.17
2017-02-02T08:52:50.308Z,8.18
2017-02-02T08:53:56.480Z,8.4
2017-02-02T08:55:00.721Z,8.72
2017-02-02T08:56:06.966Z,9.15
2017-02-02T08:57:13.195Z,9.35
2017-02-02T08:58:19.319Z,9.64
2017-02-02T08:59:23.549Z,9.91
2017-02-02T09:00:29.912Z,10.04
2017-02-02T09:01:35.195Z,10.37
2017-02-02T09:02:39.435Z,10.53
2017-02-02T09:03:44.690Z,11.02
2017-02-02T09:04:50.804Z,11.29
2017-02-02T09:05:56.007Z,11.34
2017-02-02T09:07:00.241Z,11.29
2017-02-02T09:08:05.451Z,11.44
2017-02-02T09:09:11.629Z,11.72
2017-02-02T09:10:14.886Z,11.89
2017-02-02T09:11:21.055Z,11.72
2017-02-02T09:12:27.278Z,12.05
2017-02-02T09:13:32.624Z,12.05
2017-02-02T09:14:37.824Z,12.05
2017-02-02T09:15:43.101Z,12.39
2017-02-02T09:16:47.381Z,12.27
2017-02-02T09:17:52.588Z,12.2
2017-02-02T09:18:58.765Z,12.42
2017-02-02T09:20:03.980Z,12.27
2017-02-02T09:21:09.130Z,12.6
2017-02-02T09:22:13.360Z,12.41
2017-02-02T09:23:18.544Z,12.48
2017-02-02T09:24:23.753Z,12.69
2017-02-02T09:25:29.936Z,12.69
2017-02-02T09:26:35.340Z,12.67
2017-02-02T09:27:41.635Z,12.77
2017-02-02T09:28:47.880Z,12.84
2017-02-02T09:29:54.017Z,12.85
2017-02-02T09:30:58.252Z,12.97
2017-02-02T09:32:02.473Z,13.06
2017-02-02T09:33:08.648Z,13.07
2017-02-02T09:34:13.859Z,13.04
2017-02-02T09:35:20.051Z,13.29
2017-02-02T09:36:24.339Z,13.25
2017-02-02T09:37:30.569Z,13.29
2017-02-02T09:38:35.788Z,13.24
2017-02-02T09:39:40.001Z,13.54
2017-02-02T09:40:44.220Z,13.55
2017-02-02T09:41:50.400Z,13.51
2017-02-02T09:42:55.625Z,13.56
2017-02-02T09:44:01.795Z,13.55
2017-02-02T09:45:06.156Z,13.44
2017-02-02T09:46:12.366Z,13.69
2017-02-02T09:47:18.547Z,13.95
2017-02-02T09:48:23.760Z,13.96
2017-02-02T09:49:28.219Z,14.1
2017-02-02T09:50:31.500Z,14.14
2017-02-02T09:51:35.712Z,14.19
2017-02-02T09:52:41.885Z,14.02
2017-02-02T09:53:47.084Z,14.21
2017-02-02T09:54:53.264Z,14.06
2017-02-02T09:55:59.440Z,14.17
2017-02-02T09:57:05.618Z,13.95
2017-02-02T09:58:11.791Z,13.76
2017-02-02T09:59:17.975Z,13.63
2017-02-02T10:00:21.560Z,13.62
2017-02-02T10:01:26.865Z,13.52
2017-02-02T10:02:31.983Z,13.92
2017-02-02T10:03:37.206Z,14.29
2017-02-02T10:04:43.388Z,14.49
2017-02-02T10:05:46.670Z,14.6
2017-02-02T10:06:52.842Z,14.52
2017-02-02T10:07:59.088Z,14.54
2017-02-02T10:09:03.327Z,14.5
2017-02-02T10:10:08.547Z,14.24
2017-02-02T10:11:12.790Z,14.37
2017-02-02T10:12:18.980Z,14.28
2017-02-02T10:13:24.199Z,14.14
2017-02-02T10:14:28.500Z,14.07
2017-02-02T10:15:34.726Z,14.2
2017-02-02T10:16:39.922Z,14.27
2017-02-02T10:17:45.132Z,14.24
2017-02-02T10:18:50.337Z,13.95
2017-02-02T10:19:53.824Z,13.99
2017-02-02T10:20:58.994Z,13.73
2017-02-02T10:22:05.256Z,13.98
2017-02-02T10:23:11.439Z,14.06
2017-02-02T10:24:15.728Z,14.47
2017-02-02T10:25:20.888Z,14.93
2017-02-02T10:26:25.129Z,15.39
2017-02-02T10:27:30.339Z,15.94
2017-02-02T10:28:36.523Z,16.42
2017-02-02T10:29:41.733Z,16.44
2017-02-02T10:30:46.992Z,16.62
2017-02-02T10:31:53.172Z,16.83
2017-02-02T10:32:57.409Z,17.13
2017-02-02T10:34:02.623Z,17.06
2017-02-02T10:35:07.852Z,17.44
2017-02-02T10:36:12.074Z,17.64
2017-02-02T10:37:17.281Z,17.74
2017-02-02T10:38:22.460Z,17.95
2017-02-02T10:39:26.696Z,17.92
2017-02-02T10:40:31.896Z,18.06
2017-02-02T10:41:38.068Z,18.31
2017-02-02T10:42:43.281Z,18.21
2017-02-02T10:43:49.480Z,18.21
2017-02-02T10:44:55.666Z,18.1
2017-02-02T10:46:00.880Z,18.13
2017-02-02T10:47:07.056Z,17.94
2017-02-02T10:48:13.268Z,17.73
2017-02-02T10:49:19.432Z,17.78
2017-02-02T10:50:25.612Z,17.69
2017-02-02T10:51:31.794Z,17.82
2017-02-02T10:52:37.976Z,17.79
2017-02-02T10:53:44.159Z,17.78
2017-02-02T10:54:49.371Z,17.97
2017-02-02T10:55:54.608Z,17.92
2017-02-02T10:56:59.818Z,18.04
2017-02-02T10:58:04.030Z,17.74
2017-02-02T10:59:10.212Z,17.81
2017-02-02T11:00:15.422Z,17.82
2017-02-02T11:01:19.719Z,17.92
2017-02-02T11:02:23.996Z,17.92
2017-02-02T11:03:30.160Z,17.74
2017-02-02T11:04:34.377Z,17.41
2017-02-02T11:06:45.770Z,16.37
2017-02-02T11:07:50.983Z,15.88
2017-02-02T11:08:57.163Z,14.94
2017-02-02T11:10:03.437Z,14.81
2017-02-02T11:11:07.671Z,14.64
2017-02-02T11:12:10.931Z,14.49
2017-02-02T11:13:16.142Z,14.32
2017-02-02T11:14:21.364Z,14.44
2017-02-02T11:15:25.609Z,14.25
2017-02-02T11:16:31.794Z,14.12
2017-02-02T11:17:37.004Z,13.91
2017-02-02T11:18:41.247Z,13.8
2017-02-02T11:19:46.456Z,13.73
2017-02-02T11:20:52.645Z,13.52
2017-02-02T11:21:59.026Z,13.32
2017-02-02T11:23:05.204Z,13.09
2017-02-02T11:24:10.412Z,12.79
2017-02-02T11:25:14.651Z,12.52
2017-02-02T11:26:18.860Z,12.44
2017-02-02T11:27:25.050Z,12.16
2017-02-02T11:28:31.222Z,12.13
2017-02-02T11:30:43.559Z,12.06
2017-02-02T11:31:47.788Z,12.05
2017-02-02T11:32:52.001Z,11.97
2017-02-02T11:33:56.216Z,12.05
2017-02-02T11:35:00.413Z,11.96
2017-02-02T11:36:05.612Z,12.02
2017-02-02T11:37:10.854Z,12.04
2017-02-02T11:38:16.062Z,12.08
2017-02-02T11:39:21.239Z,12.05
2017-02-02T11:40:27.541Z,12.09
2017-02-02T11:41:32.754Z,12.08
2017-02-02T11:42:38.932Z,12.13
2017-02-02T11:43:45.102Z,12.26
2017-02-02T11:44:51.273Z,12.39
2017-02-02T11:45:57.527Z,12.41
2017-02-02T11:47:02.733Z,12.42
2017-02-02T11:48:06.010Z,12.41
2017-02-02T11:49:11.213Z,12.29
2017-02-02T11:50:17.389Z,12.16
2017-02-02T11:51:23.571Z,12.19
2017-02-02T11:52:29.743Z,12.11
2017-02-02T11:53:34.967Z,12.2
2017-02-02T11:54:41.240Z,12.16
2017-02-02T11:55:47.421Z,12.11
2017-02-02T11:56:51.727Z,12.12
2017-02-02T11:57:57.902Z,12.13
2017-02-02T11:59:02.142Z,12.09
2017-02-02T12:00:08.312Z,12.06
2017-02-02T12:01:14.496Z,12.04
2017-02-02T12:02:20.673Z,12.09
2017-02-02T12:03:26.876Z,12.06
2017-02-02T12:04:33.051Z,12.01
2017-02-02T12:05:39.223Z,12.02
2017-02-02T12:06:45.397Z,11.93
2017-02-02T12:07:49.673Z,11.71
2017-02-02T12:08:54.847Z,11.77
2017-02-02T12:10:00.048Z,11.74
2017-02-02T12:11:06.236Z,11.74
2017-02-02T12:12:11.436Z,11.62
2017-02-02T12:13:15.675Z,11.75
2017-02-02T12:14:20.888Z,11.67
2017-02-02T12:15:27.064Z,11.65
2017-02-02T12:16:32.246Z,11.71
2017-02-02T12:17:37.453Z,11.77
2017-02-02T12:18:40.729Z,11.61
2017-02-02T12:19:45.958Z,11.68
2017-02-02T12:20:52.130Z,11.77
2017-02-02T12:21:57.346Z,11.74
2017-02-02T12:23:02.555Z,11.74
2017-02-02T12:24:07.762Z,11.67
2017-02-02T12:25:13.997Z,11.71
2017-02-02T12:26:17.280Z,11.82
2017-02-02T12:27:23.459Z,11.72
2017-02-02T12:28:29.635Z,11.72
2017-02-02T12:29:33.908Z,11.78
2017-02-02T12:30:39.088Z,11.86
2017-02-02T12:31:44.300Z,11.87
2017-02-02T12:32:49.479Z,11.85
2017-02-02T12:33:54.686Z,11.93
2017-02-02T12:34:59.889Z,11.86
2017-02-02T12:36:06.068Z,11.99
2017-02-02T12:37:10.305Z,11.93
2017-02-02T12:38:15.473Z,11.89
2017-02-02T12:39:19.737Z,11.99
2017-02-02T12:40:23.901Z,11.9
2017-02-02T12:41:28.153Z,11.94
2017-02-02T12:42:32.373Z,11.94
2017-02-02T12:43:36.588Z,11.93
2017-02-02T12:44:41.815Z,12.01
2017-02-02T12:45:47.020Z,11.89
2017-02-02T12:46:52.227Z,11.82
2017-02-02T12:47:56.491Z,11.87
2017-02-02T12:49:02.622Z,11.87
2017-02-02T12:50:07.875Z,11.82
2017-02-02T12:51:13.065Z,11.85
2017-02-02T12:52:19.236Z,11.93
2017-02-02T12:53:24.432Z,11.93
2017-02-02T12:54:29.635Z,11.75
2017-02-02T12:55:35.882Z,11.71
2017-02-02T12:56:41.046Z,11.74
2017-02-02T12:57:47.224Z,11.7
2017-02-02T12:58:53.396Z,11.74
2017-02-02T12:59:58.844Z,11.68
2017-02-02T13:01:03.054Z,11.68
2017-02-02T13:02:07.276Z,11.68
2017-02-02T13:03:13.453Z,11.75
2017-02-02T13:04:18.639Z,11.68
2017-02-02T13:05:24.864Z,11.74
2017-02-02T13:06:30.033Z,11.68
2017-02-02T13:07:35.230Z,11.71
2017-02-02T13:08:40.438Z,11.71
2017-02-02T13:09:46.608Z,11.72
2017-02-02T13:10:51.806Z,11.72
2017-02-02T13:11:57.987Z,11.74
2017-02-02T13:13:04.197Z,11.82
2017-02-02T13:14:08.410Z,11.7
2017-02-02T13:15:14.588Z,11.7
2017-02-02T13:16:19.776Z,11.67
2017-02-02T13:17:25.945Z,11.74
2017-02-02T13:18:30.156Z,11.68
2017-02-02T13:19:36.339Z,11.71
2017-02-02T13:20:41.618Z,11.75
2017-02-02T13:21:47.791Z,11.82
2017-02-02T13:22:54.019Z,11.74
2017-02-02T13:23:59.292Z,11.83
2017-02-02T13:25:04.437Z,11.8
2017-02-02T13:26:09.645Z,11.9
2017-02-02T13:27:14.851Z,11.89
2017-02-02T13:28:19.063Z,11.96
2017-02-02T13:29:22.329Z,11.9
2017-02-02T13:30:26.571Z,11.97
2017-02-02T13:31:30.816Z,11.97
2017-02-02T13:32:36.950Z,12.02
2017-02-02T13:33:43.121Z,12.06
2017-02-02T13:34:48.336Z,12.13
2017-02-02T13:35:54.505Z,12.05
2017-02-02T13:36:59.810Z,12.13
2017-02-02T13:38:04.015Z,11.99
2017-02-02T13:39:09.197Z,11.99
2017-02-02T13:40:14.407Z,12.02
2017-02-02T13:41:19.611Z,11.96
2017-02-02T13:42:25.781Z,11.97
2017-02-02T13:43:31.994Z,11.96
2017-02-02T13:44:36.222Z,11.99
2017-02-02T13:45:42.411Z,12.02
2017-02-02T13:46:47.612Z,12.02
2017-02-02T13:47:52.814Z,12.04
2017-02-02T13:48:58.145Z,12.05
2017-02-02T13:50:03.349Z,12.09
2017-02-02T13:51:08.555Z,12.04
2017-02-02T13:52:12.829Z,12.09
2017-02-02T13:53:18.975Z,12.15
2017-02-02T13:54:22.243Z,12.15
2017-02-02T13:55:28.429Z,12.21
2017-02-02T13:56:33.609Z,12.21
2017-02-02T13:57:39.813Z,12.26
2017-02-02T13:58:45.003Z,12.34
2017-02-02T13:59:50.317Z,12.27
2017-02-02T14:00:56.485Z,12.33
2017-02-02T14:02:02.656Z,12.34
2017-02-02T14:03:06.930Z,12.38
2017-02-02T14:04:11.174Z,12.39
2017-02-02T14:05:15.445Z,12.45
2017-02-02T14:06:20.615Z,12.41
2017-02-02T14:07:26.881Z,12.41
2017-02-02T14:08:32.083Z,12.44
2017-02-02T14:09:38.261Z,12.41
2017-02-02T14:10:43.439Z,12.44
2017-02-02T14:11:49.638Z,12.44
2017-02-02T14:12:52.878Z,12.41
2017-02-02T14:13:57.089Z,12.52
2017-02-02T14:15:03.270Z,12.48
2017-02-02T14:16:09.448Z,12.48
2017-02-02T14:17:15.626Z,12.54
2017-02-02T14:18:21.807Z,12.62
2017-02-02T14:19:27.067Z,12.66
2017-02-02T14:20:33.241Z,12.66
2017-02-02T14:21:39.409Z,12.66
2017-02-02T14:22:42.653Z,12.6
2017-02-02T14:23:47.864Z,12.69
2017-02-02T14:24:53.067Z,12.69
2017-02-02T14:25:59.352Z,12.67